createdAt,value
2019-01-29T00:02:15.812Z,1.80
2019-01-29T00:04:49.563Z,1.80
2019-01-29T00:07:23.166Z,1.80
2019-01-29T00:09:56.783Z,1.80
2019-01-29T00:12:30.335Z,1.80
2019-01-29T00:15:04.767Z,1.80
2019-01-29T00:17:38.500Z,1.90
2019-01-29T00:20:12.990Z,1.90
2019-01-29T00:22:47.423Z,1.90
2019-01-29T00:25:21.011Z,1.90
2019-01-29T00:27:54.512Z,1.90
2019-01-29T00:30:28.127Z,1.90
2019-01-29T00:33:01.803Z,1.80
2019-01-29T00:35:35.351Z,1.80
2019-01-29T00:38:09.092Z,1.80
2019-01-29T00:40:42.603Z,1.80
2019-01-29T00:43:16.199Z,1.80
2019-01-29T00:45:49.750Z,1.90
2019-01-29T00:48:23.302Z,1.90
2019-01-29T00:50:57.667Z,1.80
2019-01-29T00:53:31.277Z,1.80
2019-01-29T00:56:04.828Z,1.80
2019-01-29T00:58:38.491Z,1.80
2019-01-29T01:01:12.344Z,1.80
2019-01-29T01:03:46.071Z,1.70
2019-01-29T01:06:19.817Z,1.70
2019-01-29T01:08:53.485Z,1.70
2019-01-29T01:11:27.104Z,1.70
2019-01-29T01:14:00.902Z,1.70
2019-01-29T01:16:34.609Z,1.70
2019-01-29T01:19:08.223Z,1.70
2019-01-29T01:21:42.011Z,1.80
2019-01-29T01:24:15.594Z,1.80
2019-01-29T01:26:49.176Z,1.80
2019-01-29T01:29:22.952Z,1.80
2019-01-29T01:31:56.504Z,1.80
2019-01-29T01:34:30.789Z,1.70
2019-01-29T01:37:04.504Z,1.70
2019-01-29T01:39:38.075Z,1.70
2019-01-29T01:42:11.649Z,1.60
2019-01-29T01:44:45.300Z,1.70
2019-01-29T01:47:19.090Z,1.70
2019-01-29T01:49:52.852Z,1.70
2019-01-29T01:52:26.427Z,1.70
2019-01-29T01:55:00.252Z,1.80
2019-01-29T01:57:34.072Z,1.80
2019-01-29T02:00:08.465Z,1.80
2019-01-29T02:02:42.990Z,1.80
2019-01-29T02:05:16.705Z,1.80
2019-01-29T02:07:50.478Z,1.80
2019-01-29T02:10:24.059Z,1.90
2019-01-29T02:12:57.607Z,1.90
2019-01-29T02:15:31.440Z,1.90
2019-01-29T02:18:05.093Z,1.90
2019-01-29T02:20:38.833Z,1.90
2019-01-29T02:23:12.446Z,1.90
2019-01-29T02:25:46.007Z,1.90
2019-01-29T02:28:20.858Z,1.90
2019-01-29T02:30:54.534Z,2.00
2019-01-29T02:33:28.235Z,2.00
2019-01-29T02:36:02.584Z,2.00
2019-01-29T02:38:36.332Z,2.00
2019-01-29T02:41:10.003Z,2.00
2019-01-29T02:43:43.668Z,2.00
2019-01-29T02:46:17.976Z,2.00
2019-01-29T02:48:51.496Z,2.00
2019-01-29T02:51:25.094Z,2.00
2019-01-29T02:53:58.677Z,2.00
2019-01-29T02:56:32.192Z,1.90
2019-01-29T02:59:05.789Z,1.90
2019-01-29T03:01:39.398Z,1.90
2019-01-29T03:04:13.021Z,1.90
2019-01-29T03:06:46.615Z,1.90
2019-01-29T03:09:20.196Z,1.90
2019-01-29T03:11:54.611Z,1.90
2019-01-29T03:14:28.235Z,1.90
2019-01-29T03:17:01.917Z,1.90
2019-01-29T03:19:35.577Z,1.90
2019-01-29T03:22:09.271Z,1.90
2019-01-29T03:24:42.823Z,1.80
2019-01-29T03:27:17.400Z,1.80
2019-01-29T03:29:51.197Z,1.80
2019-01-29T03:32:24.943Z,1.80
2019-01-29T03:34:58.655Z,1.80
2019-01-29T03:37:32.362Z,1.70
2019-01-29T03:40:10.770Z,1.70
2019-01-29T03:42:44.467Z,1.70
2019-01-29T03:45:18.007Z,1.60
2019-01-29T03:47:51.713Z,1.60
2019-01-29T03:50:25.336Z,1.60
2019-01-29T03:52:58.976Z,1.50
2019-01-29T03:55:32.560Z,1.50
2019-01-29T03:58:06.331Z,1.50
2019-01-29T04:00:40.955Z,1.50
2019-01-29T04:03:14.675Z,1.50
2019-01-29T04:05:48.280Z,1.50
2019-01-29T04:08:22.918Z,1.50
2019-01-29T04:10:57.431Z,1.40
2019-01-29T04:13:31.118Z,1.40
2019-01-29T04:16:04.711Z,1.40
2019-01-29T04:18:38.303Z,1.40
2019-01-29T04:21:11.912Z,1.40
2019-01-29T04:23:47.821Z,1.40
2019-01-29T04:26:19.306Z,1.40
2019-01-29T04:28:52.856Z,1.50
2019-01-29T04:31:26.449Z,1.60
2019-01-29T04:33:59.975Z,1.50
2019-01-29T04:36:33.522Z,1.50
2019-01-29T04:39:07.111Z,1.40
2019-01-29T04:41:40.921Z,1.40
2019-01-29T04:44:14.523Z,1.40
2019-01-29T04:46:48.286Z,1.40
2019-01-29T04:49:21.919Z,1.40
2019-01-29T04:51:55.700Z,1.50
2019-01-29T04:54:29.367Z,1.50
2019-01-29T04:57:03.054Z,1.50
2019-01-29T04:59:36.697Z,1.50
2019-01-29T05:02:10.346Z,1.60
2019-01-29T05:04:43.918Z,1.60
2019-01-29T05:07:18.267Z,1.60
2019-01-29T05:09:51.920Z,1.60
2019-01-29T05:12:25.540Z,1.60
2019-01-29T05:14:59.171Z,1.70
2019-01-29T05:17:32.769Z,1.70
2019-01-29T05:20:06.498Z,1.80
2019-01-29T05:22:40.122Z,1.80
2019-01-29T05:25:13.906Z,1.80
2019-01-29T05:27:47.452Z,1.90
2019-01-29T05:30:21.225Z,1.90
2019-01-29T05:32:55.508Z,1.90
2019-01-29T05:35:30.038Z,1.90
2019-01-29T05:38:04.250Z,1.90
2019-01-29T05:40:37.531Z,1.90
2019-01-29T05:43:11.380Z,2.00
2019-01-29T05:45:45.189Z,1.90
2019-01-29T05:48:18.940Z,2.00
2019-01-29T05:50:52.600Z,2.00
2019-01-29T05:53:26.236Z,2.00
2019-01-29T05:55:59.983Z,2.10
2019-01-29T05:58:33.535Z,2.10
2019-01-29T06:01:07.156Z,2.10
2019-01-29T06:03:40.776Z,2.20
2019-01-29T06:06:14.511Z,2.20
2019-01-29T06:08:48.322Z,2.20
2019-01-29T06:11:22.061Z,2.20
2019-01-29T06:13:55.853Z,2.20
2019-01-29T06:16:30.520Z,2.20
2019-01-29T06:19:04.332Z,2.20
2019-01-29T06:21:38.104Z,2.20
2019-01-29T06:24:11.714Z,2.20
2019-01-29T06:26:45.315Z,2.20
2019-01-29T06:29:18.900Z,2.20
2019-01-29T06:31:52.692Z,2.30
2019-01-29T06:34:26.274Z,2.30
2019-01-29T06:36:59.920Z,2.20
2019-01-29T06:39:33.435Z,2.30
2019-01-29T06:42:07.735Z,2.40
2019-01-29T06:44:42.195Z,2.30
2019-01-29T06:47:15.741Z,2.30
2019-01-29T06:49:49.311Z,2.30
2019-01-29T06:52:23.119Z,2.30
2019-01-29T06:54:56.659Z,2.30
2019-01-29T06:57:31.233Z,2.30
2019-01-29T07:00:05.277Z,2.30
2019-01-29T07:02:38.882Z,2.30
2019-01-29T07:05:13.177Z,2.30
2019-01-29T07:07:47.547Z,2.30
2019-01-29T07:10:21.983Z,2.40
2019-01-29T07:12:56.634Z,2.40
2019-01-29T07:15:36.971Z,2.40
2019-01-29T07:18:16.616Z,2.40
2019-01-29T07:20:50.159Z,2.40
2019-01-29T07:23:23.767Z,2.40
2019-01-29T07:25:58.316Z,2.60
2019-01-29T07:28:31.884Z,2.50
2019-01-29T07:31:05.419Z,2.60
2019-01-29T07:33:39.769Z,2.70
2019-01-29T07:36:14.042Z,2.70
2019-01-29T07:38:48.337Z,2.70
2019-01-29T07:41:22.235Z,2.80
2019-01-29T07:43:56.050Z,2.80
2019-01-29T07:46:29.625Z,2.80
2019-01-29T07:49:03.363Z,2.80
2019-01-29T07:51:38.085Z,2.70
2019-01-29T07:54:13.941Z,2.60
2019-01-29T07:56:47.655Z,2.50
2019-01-29T07:59:32.406Z,2.60
2019-01-29T08:01:55.592Z,2.60
2019-01-29T08:04:29.234Z,2.60
2019-01-29T08:07:02.785Z,2.60
2019-01-29T08:09:36.523Z,2.60
2019-01-29T08:12:11.261Z,2.80
2019-01-29T08:14:44.826Z,2.80
2019-01-29T08:17:18.662Z,2.80
2019-01-29T08:19:53.174Z,2.90
2019-01-29T08:22:27.736Z,2.80
2019-01-29T08:25:21.212Z,2.80
2019-01-29T08:27:54.900Z,3.10
2019-01-29T08:30:29.639Z,4.50
2019-01-29T08:33:03.344Z,4.40
2019-01-29T08:35:37.014Z,4.20
2019-01-29T08:38:11.474Z,3.80
2019-01-29T08:40:45.111Z,3.80
2019-01-29T08:43:18.696Z,3.40
2019-01-29T08:45:54.157Z,3.10
2019-01-29T08:48:26.621Z,2.90
2019-01-29T08:51:00.230Z,2.90
2019-01-29T08:53:33.876Z,2.70
2019-01-29T08:56:08.373Z,2.80
2019-01-29T08:58:42.124Z,2.80
2019-01-29T09:01:15.775Z,2.80
2019-01-29T09:03:49.602Z,2.80
2019-01-29T09:06:23.403Z,2.80
2019-01-29T09:08:57.141Z,2.80
2019-01-29T09:11:30.716Z,2.90
2019-01-29T09:14:04.389Z,3.00
2019-01-29T09:16:37.928Z,3.10
2019-01-29T09:19:12.236Z,2.90
2019-01-29T09:21:45.880Z,2.90
2019-01-29T09:24:19.582Z,3.00
2019-01-29T09:26:53.342Z,2.70
2019-01-29T09:29:27.038Z,2.50
2019-01-29T09:32:00.886Z,2.50
2019-01-29T09:34:34.777Z,2.40
2019-01-29T09:37:08.404Z,2.30
2019-01-29T09:39:42.363Z,2.50
2019-01-29T09:42:16.055Z,2.70
2019-01-29T09:44:49.671Z,2.90
2019-01-29T09:47:23.255Z,3.00
2019-01-29T09:49:57.747Z,3.40
2019-01-29T09:52:31.459Z,3.40
2019-01-29T09:55:05.064Z,3.10
2019-01-29T09:57:39.596Z,3.20
2019-01-29T10:00:29.088Z,3.20
2019-01-29T10:03:02.738Z,3.30
2019-01-29T10:05:36.362Z,3.30
2019-01-29T10:08:10.236Z,3.30
2019-01-29T10:10:44.118Z,3.40
2019-01-29T10:13:17.861Z,3.50
2019-01-29T10:15:51.629Z,3.70
2019-01-29T10:18:25.209Z,3.90
2019-01-29T10:20:59.518Z,4.20
2019-01-29T10:23:33.234Z,4.20
2019-01-29T10:26:06.841Z,4.60
2019-01-29T10:28:40.589Z,5.10
2019-01-29T10:31:14.273Z,5.80
2019-01-29T10:33:47.828Z,5.90
2019-01-29T10:36:21.412Z,5.50
2019-01-29T10:38:55.093Z,5.40
2019-01-29T10:41:28.841Z,5.90
2019-01-29T10:44:02.474Z,7.20
2019-01-29T10:46:36.269Z,6.80
2019-01-29T10:49:09.956Z,7.20
2019-01-29T10:51:43.569Z,7.90
2019-01-29T10:54:17.138Z,7.70
2019-01-29T10:56:50.888Z,6.50
2019-01-29T10:59:24.452Z,5.90
2019-01-29T11:01:58.025Z,5.50
2019-01-29T11:04:31.703Z,5.20
2019-01-29T11:07:05.356Z,5.20
2019-01-29T11:09:39.186Z,4.80
2019-01-29T11:12:12.973Z,4.80
2019-01-29T11:14:46.693Z,4.80
2019-01-29T11:17:20.273Z,4.60
2019-01-29T11:19:53.960Z,4.60
2019-01-29T11:22:27.730Z,4.70
2019-01-29T11:25:01.420Z,4.60
2019-01-29T11:27:34.987Z,4.60
2019-01-29T11:30:11.562Z,4.80
2019-01-29T11:32:45.188Z,4.90
2019-01-29T11:35:19.004Z,5.00
2019-01-29T11:37:52.625Z,4.90
2019-01-29T11:40:28.507Z,5.30
2019-01-29T11:43:02.301Z,5.70
2019-01-29T11:45:36.869Z,5.50
2019-01-29T11:48:10.636Z,5.10
2019-01-29T11:50:44.288Z,5.00
2019-01-29T11:53:18.023Z,4.90
2019-01-29T11:55:51.568Z,4.90
2019-01-29T11:58:25.177Z,5.10
2019-01-29T12:00:59.340Z,5.20
2019-01-29T12:03:33.030Z,5.30
2019-01-29T12:06:06.574Z,5.60
2019-01-29T12:08:40.437Z,5.60
2019-01-29T12:11:13.995Z,5.40
2019-01-29T12:13:48.600Z,5.60
2019-01-29T12:16:22.366Z,5.60
2019-01-29T12:18:55.876Z,5.80
2019-01-29T12:21:29.710Z,6.00
2019-01-29T12:24:03.450Z,5.90
2019-01-29T12:26:37.037Z,5.80
2019-01-29T12:29:10.631Z,5.80
2019-01-29T12:31:44.373Z,5.80
2019-01-29T12:34:17.953Z,6.00
2019-01-29T12:36:51.795Z,6.20
2019-01-29T12:39:25.550Z,5.60
2019-01-29T12:42:00.119Z,5.20
2019-01-29T12:44:33.932Z,5.20
2019-01-29T12:47:07.475Z,5.00
2019-01-29T12:49:41.100Z,5.10
2019-01-29T12:52:14.912Z,5.00
2019-01-29T12:54:49.314Z,5.00
2019-01-29T12:57:23.051Z,5.00
2019-01-29T12:59:56.592Z,5.10
2019-01-29T13:02:30.151Z,5.20
2019-01-29T13:05:03.871Z,5.20
2019-01-29T13:07:37.551Z,5.30
2019-01-29T13:10:11.116Z,5.10
2019-01-29T13:12:45.005Z,4.90
2019-01-29T13:15:21.145Z,4.50
2019-01-29T13:17:54.891Z,4.60
2019-01-29T13:20:28.627Z,4.80
2019-01-29T13:23:02.201Z,4.70
2019-01-29T13:25:35.806Z,4.80
2019-01-29T13:28:09.413Z,5.00
2019-01-29T13:30:43.013Z,5.10
2019-01-29T13:33:16.828Z,5.10
2019-01-29T13:35:50.403Z,5.20
2019-01-29T13:38:24.003Z,5.40
2019-01-29T13:40:57.599Z,5.40
2019-01-29T13:43:31.348Z,5.50
2019-01-29T13:46:04.934Z,5.70
2019-01-29T13:48:38.513Z,5.80
2019-01-29T13:51:12.834Z,5.50
2019-01-29T13:53:46.581Z,5.50
2019-01-29T13:56:20.271Z,5.60
2019-01-29T13:58:53.867Z,5.40
2019-01-29T14:01:27.486Z,5.30
2019-01-29T14:04:06.016Z,5.30
2019-01-29T14:06:34.686Z,5.30
2019-01-29T14:09:09.033Z,5.20
2019-01-29T14:11:42.771Z,5.20
2019-01-29T14:14:16.331Z,5.30
2019-01-29T14:16:49.884Z,5.00
2019-01-29T14:19:23.643Z,4.80
2019-01-29T14:21:57.377Z,4.70
2019-01-29T14:24:31.388Z,4.70
2019-01-29T14:27:05.153Z,4.70
2019-01-29T14:29:38.973Z,4.70
2019-01-29T14:32:12.718Z,4.60
2019-01-29T14:34:46.488Z,4.50
2019-01-29T14:37:20.032Z,4.50
2019-01-29T14:39:59.253Z,4.30
2019-01-29T14:42:33.673Z,4.20
2019-01-29T14:45:08.094Z,4.20
2019-01-29T14:47:43.800Z,4.30
2019-01-29T14:50:16.233Z,4.40
2019-01-29T14:52:49.827Z,4.30
2019-01-29T14:55:23.606Z,4.30
2019-01-29T14:57:57.379Z,4.30
2019-01-29T15:00:34.704Z,4.40
2019-01-29T15:03:09.135Z,4.50
2019-01-29T15:05:42.753Z,4.50
2019-01-29T15:08:16.445Z,4.60
2019-01-29T15:10:50.971Z,4.50
2019-01-29T15:13:25.604Z,4.50
2019-01-29T15:16:01.743Z,4.60
2019-01-29T15:18:36.989Z,4.60
2019-01-29T15:21:10.648Z,4.60
2019-01-29T15:23:45.126Z,4.40
2019-01-29T15:26:18.796Z,4.40
2019-01-29T15:28:53.433Z,4.40
2019-01-29T15:31:27.125Z,4.40
2019-01-29T15:34:00.743Z,4.40
2019-01-29T15:36:35.248Z,4.30
2019-01-29T15:39:08.957Z,4.20
2019-01-29T15:41:42.507Z,4.20
2019-01-29T15:44:16.113Z,4.20
2019-01-29T15:46:49.733Z,4.10
2019-01-29T15:49:24.355Z,4.00
2019-01-29T15:51:58.079Z,4.00
2019-01-29T15:54:31.602Z,4.00
2019-01-29T15:57:13.863Z,3.90
2019-01-29T15:59:42.913Z,3.90
2019-01-29T16:02:12.703Z,3.90
2019-01-29T16:04:46.248Z,3.90
2019-01-29T16:07:19.982Z,3.80
2019-01-29T16:09:53.475Z,3.70
2019-01-29T16:12:27.054Z,3.70
2019-01-29T16:15:00.809Z,3.60
2019-01-29T16:17:34.381Z,3.60
2019-01-29T16:20:08.049Z,3.50
2019-01-29T16:22:42.342Z,3.40
2019-01-29T16:25:17.426Z,3.40
2019-01-29T16:27:51.150Z,3.30
2019-01-29T16:30:25.686Z,3.20
2019-01-29T16:32:59.359Z,3.10
2019-01-29T16:35:33.166Z,3.00
2019-01-29T16:38:06.927Z,3.00
2019-01-29T16:40:41.434Z,3.00
2019-01-29T16:43:15.110Z,2.90
2019-01-29T16:45:48.907Z,2.90
2019-01-29T16:48:22.506Z,2.90
2019-01-29T16:50:56.831Z,2.90
2019-01-29T16:53:30.620Z,2.80
2019-01-29T16:56:04.281Z,2.80
2019-01-29T16:58:37.863Z,2.70
2019-01-29T17:01:11.396Z,2.60
2019-01-29T17:03:45.066Z,2.60
2019-01-29T17:06:18.616Z,2.50
2019-01-29T17:08:52.110Z,2.50
2019-01-29T17:11:25.683Z,2.50
2019-01-29T17:13:59.421Z,2.40
2019-01-29T17:16:32.972Z,2.30
2019-01-29T17:19:06.538Z,2.40
2019-01-29T17:21:40.208Z,2.40
2019-01-29T17:24:13.779Z,2.40
2019-01-29T17:26:47.527Z,2.40
2019-01-29T17:29:21.331Z,2.40
2019-01-29T17:31:54.892Z,2.30
2019-01-29T17:34:28.536Z,2.30
2019-01-29T17:37:02.229Z,2.30
2019-01-29T17:39:35.783Z,2.20
2019-01-29T17:42:09.402Z,2.20
2019-01-29T17:44:43.046Z,2.10
2019-01-29T17:47:16.638Z,2.00
2019-01-29T17:49:50.211Z,2.00
2019-01-29T17:52:24.076Z,2.00
2019-01-29T17:54:57.763Z,2.00
2019-01-29T17:57:31.556Z,1.90
2019-01-29T18:00:07.852Z,1.90
2019-01-29T18:02:41.452Z,1.90
2019-01-29T18:05:14.959Z,2.00
2019-01-29T18:07:48.540Z,1.90
2019-01-29T18:10:22.183Z,1.90
2019-01-29T18:12:55.813Z,1.90
2019-01-29T18:15:29.503Z,1.90
2019-01-29T18:18:03.224Z,1.80
2019-01-29T18:20:36.916Z,1.80
2019-01-29T18:23:11.375Z,1.60
2019-01-29T18:25:45.030Z,1.60
2019-01-29T18:28:18.659Z,1.70
2019-01-29T18:30:52.247Z,1.60
2019-01-29T18:33:26.903Z,1.50
2019-01-29T18:36:00.607Z,1.50
2019-01-29T18:38:34.582Z,1.50
2019-01-29T18:41:09.189Z,1.50
2019-01-29T18:43:42.909Z,1.50
2019-01-29T18:46:16.552Z,1.50
2019-01-29T18:48:50.134Z,1.40
2019-01-29T18:51:23.738Z,1.40
2019-01-29T18:53:58.105Z,1.40
2019-01-29T18:56:31.731Z,1.40
2019-01-29T18:59:05.224Z,1.30
2019-01-29T19:01:38.831Z,1.30
2019-01-29T19:04:12.581Z,1.30
2019-01-29T19:06:46.292Z,1.30
2019-01-29T19:09:20.065Z,1.30
2019-01-29T19:11:53.672Z,1.30
2019-01-29T19:14:28.063Z,1.20
2019-01-29T19:17:01.918Z,1.20
2019-01-29T19:19:35.587Z,1.10
2019-01-29T19:22:09.319Z,1.10
2019-01-29T19:24:43.000Z,1.10
2019-01-29T19:27:16.703Z,1.10
2019-01-29T19:29:51.104Z,1.10
2019-01-29T19:32:24.694Z,1.10
2019-01-29T19:34:58.224Z,1.00
2019-01-29T19:37:31.794Z,1.00
2019-01-29T19:40:06.215Z,0.90
2019-01-29T19:42:39.830Z,0.90
2019-01-29T19:45:28.592Z,0.90
2019-01-29T19:48:02.292Z,0.90
2019-01-29T19:50:36.610Z,0.90
2019-01-29T19:53:11.072Z,0.90
2019-01-29T19:55:44.650Z,0.90
2019-01-29T19:58:19.071Z,1.00
2019-01-29T20:00:52.650Z,0.90
2019-01-29T20:03:26.525Z,0.90
2019-01-29T20:06:00.387Z,1.00
2019-01-29T20:08:34.033Z,1.00
2019-01-29T20:11:07.764Z,1.00
2019-01-29T20:13:41.388Z,1.00
2019-01-29T20:16:14.969Z,1.00
2019-01-29T20:18:49.067Z,1.00
2019-01-29T20:21:22.308Z,1.00
2019-01-29T20:23:56.712Z,1.00
2019-01-29T20:26:30.298Z,1.00
2019-01-29T20:29:03.870Z,1.00
2019-01-29T20:31:37.615Z,1.00
2019-01-29T20:34:11.211Z,0.90
2019-01-29T20:36:46.222Z,1.00
2019-01-29T20:39:19.536Z,1.00
2019-01-29T20:41:53.136Z,1.00
2019-01-29T20:44:26.890Z,1.00
2019-01-29T20:47:00.648Z,1.00
2019-01-29T20:49:34.224Z,1.00
2019-01-29T20:52:07.806Z,1.10
2019-01-29T20:54:41.376Z,1.00
2019-01-29T20:57:14.871Z,1.00
2019-01-29T20:59:48.475Z,1.00
2019-01-29T21:02:22.160Z,1.00
2019-01-29T21:04:55.778Z,1.00
2019-01-29T21:07:29.646Z,1.00
2019-01-29T21:10:03.291Z,1.00
2019-01-29T21:12:36.888Z,0.90
2019-01-29T21:15:10.493Z,0.90
2019-01-29T21:17:44.032Z,0.90
2019-01-29T21:20:18.388Z,0.90
2019-01-29T21:22:51.992Z,0.80
2019-01-29T21:25:26.524Z,0.80
2019-01-29T21:28:00.151Z,0.80
2019-01-29T21:30:33.709Z,0.80
2019-01-29T21:33:08.050Z,0.80
2019-01-29T21:35:41.715Z,0.80
2019-01-29T21:38:15.364Z,0.80
2019-01-29T21:40:49.788Z,0.80
2019-01-29T21:43:24.393Z,0.80
2019-01-29T21:45:58.003Z,0.80
2019-01-29T21:48:31.587Z,0.80
2019-01-29T21:51:05.232Z,0.80
2019-01-29T21:53:38.936Z,0.80
2019-01-29T21:56:12.498Z,0.70
2019-01-29T21:58:47.062Z,0.70
2019-01-29T22:01:20.592Z,0.70
2019-01-29T22:03:54.130Z,0.70
2019-01-29T22:06:27.709Z,0.70
2019-01-29T22:09:02.140Z,0.70
2019-01-29T22:11:35.738Z,0.70
2019-01-29T22:14:09.372Z,0.70
2019-01-29T22:16:42.920Z,0.70
2019-01-29T22:19:16.620Z,0.70
2019-01-29T22:21:50.259Z,0.70
2019-01-29T22:24:24.010Z,0.70
2019-01-29T22:26:58.472Z,0.70
2019-01-29T22:29:32.078Z,0.70
2019-01-29T22:32:06.444Z,0.70
2019-01-29T22:34:39.406Z,0.70
2019-01-29T22:37:13.063Z,0.70
2019-01-29T22:39:47.436Z,0.70
2019-01-29T22:42:21.913Z,0.70
2019-01-29T22:44:55.700Z,0.60
2019-01-29T22:47:30.253Z,0.60
2019-01-29T22:50:03.775Z,0.60
2019-01-29T22:52:37.343Z,0.60
2019-01-29T22:55:11.788Z,0.60
2019-01-29T22:57:45.296Z,0.60
2019-01-29T23:00:27.743Z,0.60
2019-01-29T23:03:01.481Z,0.60
2019-01-29T23:05:35.212Z,0.60
2019-01-29T23:08:08.811Z,0.60
2019-01-29T23:10:42.474Z,0.60
2019-01-29T23:13:16.162Z,0.50
2019-01-29T23:15:50.595Z,0.50
2019-01-29T23:18:24.929Z,0.50
2019-01-29T23:20:58.516Z,0.40
2019-01-29T23:23:32.103Z,0.50
2019-01-29T23:26:05.828Z,0.50
2019-01-29T23:28:39.540Z,0.50
2019-01-29T23:31:13.242Z,0.50
2019-01-29T23:33:47.123Z,0.50
2019-01-29T23:36:21.655Z,0.50
2019-01-29T23:38:55.276Z,0.50
2019-01-29T23:41:28.846Z,0.50
2019-01-29T23:44:02.532Z,0.50
2019-01-29T23:46:37.017Z,0.50
2019-01-29T23:49:10.559Z,0.50
2019-01-29T23:51:44.156Z,0.50
2019-01-29T23:54:17.816Z,0.50
2019-01-29T23:56:51.431Z,0.50
2019-01-29T23:59:25.850Z,0.40
